createdAt,value
2022-08-02T00:00:58.296Z,7.43
2022-08-02T00:03:25.632Z,6.65
2022-08-02T00:05:54.014Z,3.13
2022-08-02T00:08:22.230Z,7.88
2022-08-02T00:10:49.875Z,9.45
2022-08-02T00:13:17.261Z,8.60
2022-08-02T00:15:44.545Z,7.20
2022-08-02T00:18:11.895Z,4.75
2022-08-02T00:20:39.288Z,8.13
2022-08-02T00:23:06.613Z,8.25
2022-08-02T00:25:33.873Z,3.80
2022-08-02T00:28:01.157Z,2.22
2022-08-02T00:30:28.905Z,7.35
2022-08-02T00:32:56.239Z,6.93
2022-08-02T00:35:23.595Z,3.72
2022-08-02T00:37:50.993Z,5.43
2022-08-02T00:40:22.960Z,4.85
2022-08-02T00:43:04.396Z,5.35
2022-08-02T00:46:02.339Z,12.05
2022-08-02T00:48:19.841Z,5.70
2022-08-02T00:50:47.244Z,5.78
2022-08-02T00:53:14.527Z,9.05
2022-08-02T00:55:41.813Z,6.78
2022-08-02T00:58:09.495Z,2.83
2022-08-02T01:00:36.846Z,8.82
2022-08-02T01:03:04.208Z,10.32
2022-08-02T01:05:55.666Z,6.38
2022-08-02T01:08:21.437Z,4.35
2022-08-02T01:10:57.057Z,5.07
2022-08-02T01:13:25.772Z,6.10
2022-08-02T01:16:14.904Z,10.68
2022-08-02T01:18:48.286Z,6.65
2022-08-02T01:21:53.717Z,7.07
2022-08-02T01:25:06.293Z,6.55
2022-08-02T01:28:05.497Z,2.78
2022-08-02T01:30:35.111Z,8.95
2022-08-02T01:33:04.752Z,5.82
2022-08-02T01:35:50.580Z,4.53
2022-08-02T01:38:48.981Z,5.47
2022-08-02T01:41:23.768Z,12.05
2022-08-02T01:43:55.550Z,5.70
2022-08-02T01:46:24.798Z,4.97
2022-08-02T01:48:54.450Z,7.25
2022-08-02T01:51:43.153Z,6.32
2022-08-02T01:54:14.402Z,6.03
2022-08-02T01:56:43.246Z,9.98
2022-08-02T01:59:14.001Z,8.20
2022-08-02T02:01:42.776Z,7.80
2022-08-02T02:04:10.524Z,5.47
2022-08-02T02:06:39.053Z,5.13
2022-08-02T02:09:07.487Z,5.53
2022-08-02T02:12:12.117Z,5.55
2022-08-02T02:14:24.259Z,6.97
2022-08-02T02:16:52.501Z,9.60
2022-08-02T02:19:22.724Z,14.13
2022-08-02T02:21:50.322Z,10.45
2022-08-02T02:24:18.156Z,5.22
2022-08-02T02:26:50.702Z,6.97
2022-08-02T02:29:25.315Z,8.93
2022-08-02T02:31:54.453Z,7.18
2022-08-02T02:34:28.774Z,13.32
2022-08-02T02:37:00.155Z,6.65
2022-08-02T02:39:28.640Z,6.50
2022-08-02T02:41:59.476Z,4.28
2022-08-02T02:44:28.156Z,10.02
2022-08-02T02:46:56.806Z,4.57
2022-08-02T02:49:25.684Z,3.33
2022-08-02T02:51:54.165Z,6.15
2022-08-02T02:54:29.867Z,3.97
2022-08-02T02:57:04.301Z,7.03
2022-08-02T02:59:34.304Z,8.98
2022-08-02T03:02:02.836Z,15.88
2022-08-02T03:04:56.249Z,6.88
2022-08-02T03:07:19.154Z,4.05
2022-08-02T03:09:47.985Z,6.10
2022-08-02T03:12:28.783Z,3.75
2022-08-02T03:15:00.985Z,6.35
2022-08-02T03:17:38.768Z,8.68
2022-08-02T03:20:15.472Z,8.40
2022-08-02T03:22:44.086Z,7.03
2022-08-02T03:25:12.305Z,5.75
2022-08-02T03:27:40.361Z,6.95
2022-08-02T03:30:10.733Z,6.78
2022-08-02T03:32:39.953Z,5.22
2022-08-02T03:35:10.399Z,5.07
2022-08-02T03:37:38.374Z,11.25
2022-08-02T03:40:11.560Z,6.68
2022-08-02T03:42:40.407Z,9.63
2022-08-02T03:45:10.154Z,4.07
2022-08-02T03:47:41.777Z,7.65
2022-08-02T03:50:13.329Z,6.38
2022-08-02T03:52:45.003Z,9.15
2022-08-02T03:55:13.381Z,6.88
2022-08-02T03:57:42.286Z,8.57
2022-08-02T04:00:11.503Z,5.80
2022-08-02T04:02:41.373Z,7.15
2022-08-02T04:05:09.251Z,7.82
2022-08-02T04:08:33.406Z,12.05
2022-08-02T04:10:23.869Z,10.02
2022-08-02T04:12:51.562Z,7.43
2022-08-02T04:15:19.204Z,7.53
2022-08-02T04:17:52.035Z,8.27
2022-08-02T04:20:22.699Z,7.60
2022-08-02T04:23:00.382Z,13.30
2022-08-02T04:25:35.329Z,6.22
2022-08-02T04:28:17.752Z,11.05
2022-08-02T04:30:47.488Z,10.27
2022-08-02T04:33:15.708Z,14.27
2022-08-02T04:35:44.101Z,6.38
2022-08-02T04:38:14.597Z,15.85
2022-08-02T04:40:51.122Z,7.55
2022-08-02T04:43:18.547Z,9.55
2022-08-02T04:45:48.366Z,15.18
2022-08-02T04:48:16.057Z,11.75
2022-08-02T04:50:43.304Z,12.40
2022-08-02T04:53:10.579Z,10.27
2022-08-02T04:55:39.091Z,10.25
2022-08-02T04:58:23.721Z,10.48
2022-08-02T05:00:54.010Z,8.30
2022-08-02T05:03:21.329Z,11.80
2022-08-02T05:05:48.698Z,16.45
2022-08-02T05:08:16.037Z,9.55
2022-08-02T05:10:43.345Z,18.05
2022-08-02T05:13:10.739Z,7.20
2022-08-02T05:15:38.084Z,7.40
2022-08-02T05:18:05.710Z,10.40
2022-08-02T05:20:33.061Z,10.20
2022-08-02T05:23:00.318Z,13.68
2022-08-02T05:25:27.602Z,7.03
2022-08-02T05:27:54.960Z,12.45
2022-08-02T05:30:22.367Z,9.45
2022-08-02T05:32:52.661Z,8.30
2022-08-02T05:35:21.792Z,12.55
2022-08-02T05:37:51.019Z,13.68
2022-08-02T05:40:25.795Z,7.22
2022-08-02T05:42:54.545Z,11.20
2022-08-02T05:45:22.915Z,12.18
2022-08-02T05:47:50.496Z,14.38
2022-08-02T05:50:18.146Z,7.22
2022-08-02T05:52:48.379Z,8.07
2022-08-02T05:55:28.155Z,7.63
2022-08-02T05:58:07.277Z,11.18
2022-08-02T06:00:37.924Z,10.85
2022-08-02T06:03:19.091Z,11.88
2022-08-02T06:06:11.198Z,13.55
2022-08-02T06:08:47.902Z,7.70
2022-08-02T06:11:20.729Z,17.38
2022-08-02T06:13:48.364Z,6.88
2022-08-02T06:16:16.028Z,12.60
2022-08-02T06:18:46.249Z,10.13
2022-08-02T06:22:33.088Z,24.40
2022-08-02T06:24:03.146Z,15.65
2022-08-02T06:26:30.551Z,19.50
2022-08-02T06:28:58.770Z,12.55
2022-08-02T06:31:26.177Z,13.30
2022-08-02T06:33:53.465Z,15.77
2022-08-02T06:36:47.482Z,12.15
2022-08-02T06:39:32.341Z,13.25
2022-08-02T06:42:07.681Z,10.02
2022-08-02T06:44:49.513Z,16.35
2022-08-02T06:47:18.467Z,12.88
2022-08-02T06:49:52.680Z,8.80
2022-08-02T06:52:28.405Z,14.13
2022-08-02T06:54:58.426Z,13.57
2022-08-02T06:57:26.182Z,18.80
2022-08-02T06:59:53.613Z,11.15
2022-08-02T07:02:21.514Z,12.23
2022-08-02T07:04:49.123Z,14.27
2022-08-02T07:07:16.546Z,9.90
2022-08-02T07:09:56.620Z,6.28
2022-08-02T07:12:32.855Z,14.32
2022-08-02T07:15:06.400Z,12.05
2022-08-02T07:17:34.753Z,12.13
2022-08-02T07:20:03.113Z,10.35
2022-08-02T07:22:30.517Z,12.40
2022-08-02T07:24:59.833Z,10.35
2022-08-02T07:27:28.086Z,12.93
2022-08-02T07:29:56.147Z,8.10
2022-08-02T07:32:30.082Z,7.05
2022-08-02T07:34:57.978Z,9.00
2022-08-02T07:37:35.555Z,14.00
2022-08-02T07:40:19.959Z,14.68
2022-08-02T07:42:56.496Z,6.22
2022-08-02T07:45:27.355Z,11.82
2022-08-02T07:47:54.774Z,17.98
2022-08-02T07:50:22.512Z,18.67
2022-08-02T07:52:50.124Z,16.40
2022-08-02T07:55:25.468Z,12.18
2022-08-02T07:58:13.107Z,22.15
2022-08-02T08:00:44.869Z,7.57
2022-08-02T08:03:12.474Z,14.25
2022-08-02T08:05:40.710Z,6.68
2022-08-02T08:08:09.421Z,9.48
2022-08-02T08:10:40.927Z,21.25
2022-08-02T08:13:08.185Z,10.00
2022-08-02T08:15:35.454Z,16.52
2022-08-02T08:18:02.737Z,18.52
2022-08-02T08:20:30.080Z,11.45
2022-08-02T08:22:57.342Z,11.10
2022-08-02T08:25:24.730Z,10.98
2022-08-02T08:27:54.642Z,7.80
2022-08-02T08:30:22.316Z,8.90
2022-08-02T08:32:49.761Z,7.40
2022-08-02T08:35:17.651Z,9.25
2022-08-02T08:37:45.082Z,6.18
2022-08-02T08:40:13.094Z,12.20
2022-08-02T08:42:46.857Z,7.35
2022-08-02T08:45:14.174Z,13.05
2022-08-02T08:47:42.717Z,9.85
2022-08-02T08:50:19.085Z,7.25
2022-08-02T08:52:52.688Z,16.17
2022-08-02T08:55:23.806Z,9.25
2022-08-02T08:57:51.548Z,17.10
2022-08-02T09:00:18.991Z,9.52
2022-08-02T09:02:46.393Z,4.60
2022-08-02T09:05:15.915Z,8.27
2022-08-02T09:07:46.378Z,9.15
2022-08-02T09:10:32.476Z,7.20
2022-08-02T09:13:31.234Z,11.30
2022-08-02T09:16:14.151Z,10.95
2022-08-02T09:18:45.519Z,15.02
2022-08-02T09:21:15.096Z,15.05
2022-08-02T09:23:48.507Z,10.73
2022-08-02T09:26:23.934Z,13.60
2022-08-02T09:28:59.049Z,5.25
2022-08-02T09:31:26.601Z,4.07
2022-08-02T09:33:59.154Z,8.25
2022-08-02T09:36:36.602Z,23.50
2022-08-02T09:39:06.862Z,35.72
2022-08-02T09:41:37.026Z,7.63
2022-08-02T09:44:07.200Z,11.25
2022-08-02T09:46:41.178Z,12.13
2022-08-02T09:49:19.315Z,10.90
2022-08-02T09:51:46.675Z,2.85
2022-08-02T09:54:25.587Z,10.23
2022-08-02T09:56:58.714Z,8.10
2022-08-02T09:59:27.649Z,14.73
2022-08-02T10:02:01.638Z,3.90
2022-08-02T10:04:34.167Z,15.40
2022-08-02T10:07:11.929Z,5.78
2022-08-02T10:09:46.395Z,15.23
2022-08-02T10:12:15.797Z,4.32
2022-08-02T10:14:43.896Z,20.20
2022-08-02T10:17:11.941Z,18.30
2022-08-02T10:20:01.706Z,15.48
2022-08-02T10:22:28.393Z,5.85
2022-08-02T10:24:55.968Z,8.18
2022-08-02T10:27:25.732Z,14.15
2022-08-02T10:29:57.650Z,13.90
2022-08-02T10:32:36.754Z,11.23
2022-08-02T10:35:20.044Z,5.15
2022-08-02T10:38:03.771Z,6.93
2022-08-02T10:40:48.250Z,11.30
2022-08-02T10:43:42.485Z,8.30
2022-08-02T10:46:32.320Z,4.22
2022-08-02T10:49:36.288Z,12.50
2022-08-02T10:51:54.957Z,9.88
2022-08-02T10:54:25.258Z,9.20
2022-08-02T10:56:54.512Z,11.35
2022-08-02T10:59:30.987Z,13.02
2022-08-02T11:02:03.911Z,17.00
2022-08-02T11:04:37.101Z,5.97
2022-08-02T11:07:11.842Z,9.30
2022-08-02T11:09:39.283Z,7.32
2022-08-02T11:12:18.086Z,8.38
2022-08-02T11:15:03.996Z,8.38
2022-08-02T11:17:55.509Z,13.15
2022-08-02T11:20:24.065Z,7.13
2022-08-02T11:22:54.114Z,3.30
2022-08-02T11:25:24.498Z,3.33
2022-08-02T11:27:57.246Z,3.55
2022-08-02T11:30:27.287Z,12.93
2022-08-02T11:32:59.029Z,15.63
2022-08-02T11:35:46.675Z,10.85
2022-08-02T11:38:15.302Z,10.93
2022-08-02T11:40:45.702Z,22.42
2022-08-02T11:43:17.709Z,5.30
2022-08-02T11:45:45.359Z,4.60
2022-08-02T11:48:12.961Z,9.82
2022-08-02T11:50:41.125Z,1.60
2022-08-02T11:53:16.215Z,7.55
2022-08-02T11:55:43.721Z,7.07
2022-08-02T11:58:11.728Z,3.40
2022-08-02T12:00:39.500Z,13.75
2022-08-02T12:03:07.026Z,12.93
2022-08-02T12:06:04.009Z,5.38
2022-08-02T12:10:53.006Z,13.18
2022-08-02T12:13:20.334Z,17.98
2022-08-02T12:15:47.973Z,5.80
2022-08-02T12:18:40.131Z,27.02
2022-08-02T12:21:25.269Z,14.55
2022-08-02T12:24:00.485Z,5.60
2022-08-02T12:26:30.070Z,14.75
2022-08-02T12:28:59.405Z,2.80
2022-08-02T12:31:57.495Z,8.05
2022-08-02T12:34:31.161Z,4.80
2022-08-02T12:37:08.431Z,7.40
2022-08-02T12:39:46.347Z,9.40
2022-08-02T12:42:16.153Z,5.68
2022-08-02T12:44:56.301Z,9.18
2022-08-02T12:47:23.709Z,2.67
2022-08-02T12:50:18.051Z,11.93
2022-08-02T12:52:47.172Z,2.58
2022-08-02T12:55:22.397Z,7.35
2022-08-02T12:57:59.233Z,4.00
2022-08-02T13:00:30.135Z,4.40
2022-08-02T13:02:58.110Z,4.20
2022-08-02T13:05:26.626Z,4.70
2022-08-02T13:07:53.950Z,5.05
2022-08-02T13:10:21.947Z,6.30
2022-08-02T13:12:49.874Z,3.47
2022-08-02T13:15:48.972Z,6.72
2022-08-02T13:18:05.278Z,4.53
2022-08-02T13:20:32.655Z,3.08
2022-08-02T13:23:03.785Z,1.20
2022-08-02T13:25:31.687Z,6.75
2022-08-02T13:27:58.947Z,8.05
2022-08-02T13:30:28.770Z,3.20
2022-08-02T13:33:00.818Z,1.90
2022-08-02T13:35:28.721Z,3.92
2022-08-02T13:37:56.049Z,9.20
2022-08-02T13:40:24.073Z,10.20
2022-08-02T13:42:51.423Z,6.03
2022-08-02T13:45:18.749Z,2.65
2022-08-02T13:48:04.197Z,2.42
2022-08-02T13:50:32.938Z,2.63
2022-08-02T13:53:00.369Z,5.68
2022-08-02T13:55:28.202Z,4.32
2022-08-02T13:57:55.835Z,6.90
2022-08-02T14:00:35.188Z,6.95
2022-08-02T14:03:05.313Z,2.53
2022-08-02T14:05:39.288Z,7.28
2022-08-02T14:08:19.552Z,4.68
2022-08-02T14:10:48.116Z,7.20
2022-08-02T14:13:16.168Z,4.78
2022-08-02T14:15:43.958Z,12.73
2022-08-02T14:18:11.821Z,6.25
2022-08-02T14:20:39.102Z,6.82
2022-08-02T14:23:06.901Z,7.82
2022-08-02T14:25:34.269Z,2.20
2022-08-02T14:28:01.782Z,8.05
2022-08-02T14:30:29.206Z,3.85
2022-08-02T14:32:56.947Z,6.45
2022-08-02T14:35:24.421Z,5.40
2022-08-02T14:37:51.964Z,6.13
2022-08-02T14:40:28.215Z,3.67
2022-08-02T14:43:00.509Z,10.80
2022-08-02T14:45:40.111Z,5.43
2022-08-02T14:48:10.675Z,6.40
2022-08-02T14:50:38.015Z,7.82
2022-08-02T14:53:05.331Z,7.55
2022-08-02T14:55:32.715Z,9.98
2022-08-02T14:57:59.991Z,8.95
2022-08-02T15:00:27.361Z,9.90
2022-08-02T15:02:56.204Z,6.63
2022-08-02T15:05:23.492Z,5.38
2022-08-02T15:07:50.771Z,13.20
2022-08-02T15:10:18.878Z,15.02
2022-08-02T15:12:46.358Z,13.07
2022-08-02T15:15:13.917Z,8.32
2022-08-02T15:17:41.225Z,12.85
2022-08-02T15:20:24.574Z,7.70
2022-08-02T15:22:53.300Z,10.95
2022-08-02T15:25:22.076Z,14.25
2022-08-02T15:27:49.452Z,16.95
2022-08-02T15:30:16.795Z,11.18
2022-08-02T15:32:53.221Z,16.58
2022-08-02T15:37:48.762Z,21.42
2022-08-02T15:40:16.262Z,12.43
2022-08-02T15:42:44.272Z,7.97
2022-08-02T15:45:14.749Z,6.68
2022-08-02T15:47:48.177Z,10.25
2022-08-02T15:50:18.603Z,16.23
2022-08-02T15:52:45.889Z,7.68
2022-08-02T15:55:13.851Z,19.85
2022-08-02T15:57:41.183Z,9.70
2022-08-02T16:00:18.539Z,7.20
2022-08-02T16:02:47.576Z,9.15
2022-08-02T16:05:17.955Z,11.02
2022-08-02T16:07:46.125Z,4.30
2022-08-02T16:10:14.807Z,12.02
2022-08-02T16:12:42.478Z,11.50
2022-08-02T16:15:10.010Z,14.45
2022-08-02T16:17:48.939Z,7.07
2022-08-02T16:20:21.233Z,11.45
2022-08-02T16:22:48.497Z,10.18
2022-08-02T16:25:17.161Z,12.50
2022-08-02T16:27:57.899Z,18.42
2022-08-02T16:32:59.593Z,14.90
2022-08-02T16:35:28.245Z,9.38
2022-08-02T16:37:55.702Z,11.43
2022-08-02T16:40:23.133Z,10.27
2022-08-02T16:42:51.211Z,7.30
2022-08-02T16:45:22.541Z,19.38
2022-08-02T16:47:56.212Z,11.05
2022-08-02T16:50:28.324Z,5.32
2022-08-02T16:52:58.092Z,7.22
2022-08-02T16:55:26.375Z,9.60
2022-08-02T16:57:58.661Z,8.80
2022-08-02T17:00:26.909Z,10.32
2022-08-02T17:02:54.346Z,10.35
2022-08-02T17:05:38.039Z,3.83
2022-08-02T17:08:23.353Z,5.97
2022-08-02T17:11:03.312Z,14.33
2022-08-02T17:13:48.172Z,18.58
2022-08-02T17:16:20.392Z,8.50
2022-08-02T17:18:54.319Z,9.00
2022-08-02T17:21:22.073Z,15.35
2022-08-02T17:24:07.971Z,14.18
2022-08-02T17:26:37.402Z,13.57
2022-08-02T17:29:15.757Z,8.18
2022-08-02T17:32:05.200Z,11.18
2022-08-02T17:34:35.171Z,20.80
2022-08-02T17:37:06.028Z,7.57
2022-08-02T17:39:44.491Z,12.75
2022-08-02T17:42:23.470Z,12.88
2022-08-02T17:44:55.085Z,14.18
2022-08-02T17:47:42.016Z,4.90
2022-08-02T17:50:12.346Z,16.38
2022-08-02T17:52:50.016Z,11.00
2022-08-02T17:55:20.111Z,27.60
2022-08-02T17:57:56.088Z,14.43
2022-08-02T18:00:31.199Z,14.98
2022-08-02T18:02:58.487Z,8.00
2022-08-02T18:05:39.675Z,18.80
2022-08-02T18:08:14.650Z,18.35
2022-08-02T18:10:44.583Z,9.95
2022-08-02T18:13:11.935Z,14.73
2022-08-02T18:15:39.381Z,12.93
2022-08-02T18:18:07.699Z,19.90
2022-08-02T18:20:34.977Z,14.13
2022-08-02T18:23:02.670Z,11.45
2022-08-02T18:25:37.221Z,19.13
2022-08-02T18:28:11.501Z,19.90
2022-08-02T18:30:39.128Z,19.33
2022-08-02T18:35:55.152Z,13.68
2022-08-02T18:38:26.773Z,19.27
2022-08-02T18:40:54.298Z,22.48
2022-08-02T18:43:25.163Z,16.85
2022-08-02T18:46:05.460Z,11.88
2022-08-02T18:48:35.641Z,22.65
2022-08-02T18:51:04.014Z,24.00
2022-08-02T18:53:41.958Z,29.52
2022-08-02T18:56:20.014Z,21.13
2022-08-02T18:58:55.930Z,15.48
2022-08-02T19:01:33.443Z,26.35
2022-08-02T19:04:02.853Z,14.98
2022-08-02T19:06:30.670Z,23.25
2022-08-02T19:09:11.047Z,12.50
2022-08-02T19:11:48.365Z,19.92
2022-08-02T19:14:27.533Z,20.83
2022-08-02T19:17:00.358Z,23.80
2022-08-02T19:19:44.166Z,25.98
2022-08-02T19:22:18.017Z,18.60
2022-08-02T19:24:56.432Z,22.27
2022-08-02T19:27:32.419Z,20.52
2022-08-02T19:30:07.683Z,25.30
2022-08-02T19:32:41.976Z,26.48
2022-08-02T19:35:29.878Z,23.10
2022-08-02T19:38:07.537Z,19.13
2022-08-02T19:40:35.772Z,24.20
2022-08-02T19:44:27.475Z,15.13
2022-08-02T19:45:51.701Z,19.15
2022-08-02T19:48:24.313Z,37.08
2022-08-02T19:50:56.202Z,30.27
2022-08-02T19:53:29.012Z,14.57
2022-08-02T19:56:12.183Z,27.60
2022-08-02T19:58:44.855Z,26.88
2022-08-02T20:01:16.556Z,11.05
2022-08-02T20:03:52.509Z,32.72
2022-08-02T20:06:29.820Z,18.70
2022-08-02T20:08:59.225Z,23.45
2022-08-02T20:11:34.465Z,32.10
2022-08-02T20:14:06.793Z,32.30
2022-08-02T20:16:35.360Z,47.20
2022-08-02T20:19:04.473Z,24.90
2022-08-02T20:21:35.508Z,25.67
2022-08-02T20:24:09.847Z,24.13
2022-08-02T20:26:47.050Z,29.73
2022-08-02T20:29:17.536Z,22.65
2022-08-02T20:32:04.830Z,29.13
2022-08-02T20:34:33.687Z,26.77
2022-08-02T20:38:01.283Z,22.33
2022-08-02T20:39:52.185Z,28.88
2022-08-02T20:42:22.527Z,28.88
2022-08-02T20:44:54.900Z,26.58
2022-08-02T20:47:38.866Z,25.02
2022-08-02T20:50:31.379Z,33.85
2022-08-02T20:53:00.586Z,28.85
2022-08-02T20:55:30.767Z,22.27
2022-08-02T20:58:01.779Z,22.90
2022-08-02T21:00:31.805Z,26.25
2022-08-02T21:03:00.626Z,27.77
2022-08-02T21:05:54.374Z,26.42
2022-08-02T21:08:16.449Z,22.10
2022-08-02T21:10:50.526Z,35.30
2022-08-02T21:13:22.457Z,20.77
2022-08-02T21:15:52.081Z,24.17
2022-08-02T21:18:24.439Z,25.70
2022-08-02T21:21:01.915Z,23.95
2022-08-02T21:23:29.498Z,24.35
2022-08-02T21:25:57.953Z,31.80
2022-08-02T21:28:43.441Z,48.75
2022-08-02T21:31:14.674Z,25.00
2022-08-02T21:33:56.826Z,23.00
2022-08-02T21:36:33.825Z,11.90
2022-08-02T21:39:04.229Z,26.85
2022-08-02T21:41:40.017Z,27.48
2022-08-02T21:44:19.216Z,31.67
2022-08-02T21:46:50.301Z,35.10
2022-08-02T21:49:40.753Z,21.23
2022-08-02T21:52:09.623Z,25.95
2022-08-02T21:54:39.757Z,22.35
2022-08-02T21:57:15.504Z,37.83
2022-08-02T21:59:45.263Z,29.70
2022-08-02T22:02:18.007Z,24.33
2022-08-02T22:04:47.360Z,30.85
2022-08-02T22:07:23.688Z,28.98
2022-08-02T22:09:52.229Z,18.90
2022-08-02T22:12:20.907Z,33.78
2022-08-02T22:14:55.761Z,18.73
2022-08-02T22:17:51.453Z,19.38
2022-08-02T22:20:18.241Z,20.50
2022-08-02T22:22:52.419Z,17.25
2022-08-02T22:25:26.431Z,25.63
2022-08-02T22:28:35.507Z,29.02
2022-08-02T22:30:54.098Z,32.72
2022-08-02T22:33:42.526Z,20.17
2022-08-02T22:36:15.969Z,24.00
2022-08-02T22:38:47.492Z,23.83
2022-08-02T22:41:16.036Z,24.42
2022-08-02T22:43:43.685Z,26.20
2022-08-02T22:46:15.505Z,22.38
2022-08-02T22:48:45.426Z,31.02
2022-08-02T22:51:14.740Z,20.25
2022-08-02T22:53:43.534Z,19.00
2022-08-02T22:56:12.073Z,21.00
2022-08-02T22:58:57.040Z,21.92
2022-08-02T23:03:54.451Z,21.75
2022-08-02T23:06:22.721Z,36.10
2022-08-02T23:08:50.379Z,19.63
2022-08-02T23:11:17.806Z,28.38
2022-08-02T23:13:45.160Z,23.10
2022-08-02T23:16:31.275Z,19.23
2022-08-02T23:19:17.084Z,32.85
2022-08-02T23:22:01.785Z,29.25
2022-08-02T23:24:33.216Z,18.83
2022-08-02T23:27:01.316Z,22.67
2022-08-02T23:29:28.922Z,36.17
2022-08-02T23:31:56.243Z,21.35
2022-08-02T23:34:23.521Z,18.67
2022-08-02T23:36:51.053Z,29.60
2022-08-02T23:39:18.340Z,27.20
2022-08-02T23:41:45.617Z,27.23
2022-08-02T23:44:23.203Z,19.92
2022-08-02T23:46:50.504Z,18.85
2022-08-02T23:49:18.078Z,31.55
2022-08-02T23:51:45.575Z,22.75
2022-08-02T23:54:12.992Z,25.10
2022-08-02T23:56:40.976Z,22.67
2022-08-02T23:59:09.002Z,21.48
